Time;durP1;ratioP1;P1;durP2;ratioP2;P2;SDS_P1;SDS_P2;PMS_P1;PMS_P2;Temp;Humidity;BMP_temperature;BMP_pressure;BME280_temperature;BME280_humidity;BME280_pressure;Samples;Min_cycle;Max_cycle;Signal;HPM_P1;HPM_P2
2021/12/13 00:02:01;;;;;;;;;62.00;46.75;;;;;1.84;78.58;100510.09;5010626;28;45594;-75
2021/12/13 00:04:45;;;;;;;;;61.00;52.33;;;;;1.79;78.12;100515.19;5000157;28;45835;-75
2021/12/13 00:07:16;;;;;;;;;60.67;49.33;;;;;1.75;78.40;100523.78;5017900;28;46200;-75
2021/12/13 00:09:46;;;;;;;;;62.00;52.00;;;;;1.71;78.33;100509.84;5017010;28;45461;-75
2021/12/13 00:12:18;;;;;;;;;63.75;51.75;;;;;1.67;78.47;100522.78;5018508;28;45291;-75
2021/12/13 00:14:53;;;;;;;;;57.75;49.00;;;;;1.62;78.48;100514.03;5027579;28;45528;-75
2021/12/13 00:17:23;;;;;;;;;62.00;52.00;;;;;1.57;78.71;100521.72;5017409;28;45485;-75
2021/12/13 00:19:57;;;;;;;;;62.75;52.25;;;;;1.53;78.78;100516.44;5016561;28;45439;-75
2021/12/13 00:22:32;;;;;;;;;58.75;47.00;;;;;1.48;79.22;100518.09;5020372;28;45554;-75
2021/12/13 00:25:05;;;;;;;;;54.00;46.33;;;;;1.44;78.98;100524.94;5018026;28;45224;-76
2021/12/13 00:27:37;;;;;;;;;60.67;47.00;;;;;1.40;79.08;100520.53;5019560;28;46135;-75
2021/12/13 00:30:28;;;;;;;;;68.75;51.50;;;;;1.37;79.43;100512.69;5004602;28;45311;-76
2021/12/13 00:33:30;;;;;;;;;69.75;52.75;;;;;1.36;79.40;100510.94;5017240;28;45201;-75
2021/12/13 00:36:05;;;;;;;;;60.50;51.50;;;;;1.32;79.65;100507.41;5015685;28;45601;-75
2021/12/13 00:38:37;;;;;;;;;60.50;48.50;;;;;1.29;79.42;100509.06;5016261;28;45560;-75
2021/12/13 00:41:08;;;;;;;;;68.33;53.00;;;;;1.25;79.79;100508.13;5009628;28;45342;-76
2021/12/13 00:43:43;;;;;;;;;60.25;48.25;;;;;1.23;79.48;100508.94;5014986;28;45502;-76
2021/12/13 00:46:12;;;;;;;;;60.33;47.33;;;;;1.20;79.69;100504.56;5004636;28;45462;-75
2021/12/13 00:48:43;;;;;;;;;62.00;50.33;;;;;1.17;79.81;100504.53;5024710;28;45354;-75
2021/12/13 00:51:32;;;;;;;;;65.33;50.00;;;;;1.14;79.68;100493.19;5015539;28;45503;-75
2021/12/13 00:54:02;;;;;;;;;49.67;43.00;;;;;1.09;79.75;100489.63;5015291;28;45411;-75
2021/12/13 00:56:54;;;;;;;;;65.67;54.00;;;;;1.04;79.96;100477.41;5016494;28;45520;-75
2021/12/13 00:59:22;;;;;;;;;57.00;45.00;;;;;1.01;80.14;100487.72;5016632;28;45939;-75
2021/12/13 01:02:14;;;;;;;;;64.00;47.33;;;;;0.98;80.10;100481.63;4985037;28;45551;-75
2021/12/13 01:05:02;;;;;;;;;58.00;45.67;;;;;0.95;80.26;100473.78;5016548;28;45487;-75
2021/12/13 01:07:33;;;;;;;;;61.33;50.33;;;;;0.93;80.32;100473.75;5016802;28;45300;-76
2021/12/13 01:10:17;;;;;;;;;61.33;46.67;;;;;0.91;80.33;100469.34;5018555;28;47916;-75
2021/12/13 01:12:44;;;;;;;;;54.67;46.33;;;;;0.89;80.70;100463.25;5020351;28;45315;-75
2021/12/13 01:15:19;;;;;;;;;53.33;47.00;;;;;0.87;80.75;100468.41;5015421;28;45382;-76
2021/12/13 01:17:58;;;;;;;;;60.00;47.67;;;;;0.87;80.73;100464.94;5023532;28;45403;-76
2021/12/13 01:20:55;;;;;;;;;55.67;45.00;;;;;0.88;80.68;100464.09;5016863;28;46078;-76
2021/12/13 01:23:38;;;;;;;;;59.67;49.33;;;;;0.86;81.27;100465.78;5015662;28;45414;-76
2021/12/13 01:26:26;;;;;;;;;62.50;48.50;;;;;0.87;81.25;100475.31;5016419;28;45462;-75
2021/12/13 01:29:00;;;;;;;;;64.75;52.00;;;;;0.87;80.93;100477.91;5016890;28;45555;-75
2021/12/13 01:31:33;;;;;;;;;60.75;45.25;;;;;0.86;81.17;100474.44;5016791;28;45261;-76
2021/12/13 01:34:01;;;;;;;;;56.33;45.00;;;;;0.84;81.23;100457.13;5030146;28;45954;-76
2021/12/13 01:36:56;;;;;;;;;61.67;48.67;;;;;0.82;81.21;100453.59;4989829;28;45467;-76
2021/12/13 01:39:25;;;;;;;;;64.50;49.50;;;;;0.81;81.45;100462.25;4975911;28;45450;-76
2021/12/13 01:41:58;;;;;;;;;57.33;40.67;;;;;0.82;81.36;100462.28;4990506;28;45461;-76
2021/12/13 01:44:28;;;;;;;;;56.33;47.33;;;;;0.79;81.61;100467.41;4984938;28;45294;-76
2021/12/13 01:47:16;;;;;;;;;55.00;47.67;;;;;0.78;81.52;100478.63;4988503;28;45598;-76
2021/12/13 01:49:46;;;;;;;;;60.00;47.33;;;;;0.75;81.46;100481.16;4970352;28;45554;-76
2021/12/13 01:52:24;;;;;;;;;64.33;48.00;;;;;0.74;81.61;100471.59;4975464;28;46527;-76
2021/12/13 01:54:50;;;;;;;;;46.75;42.75;;;;;0.72;81.44;100470.69;4974975;28;45377;-76
2021/12/13 01:57:26;;;;;;;;;53.00;45.00;;;;;0.69;81.42;100466.31;4974716;28;45404;-76
2021/12/13 02:00:18;;;;;;;;;53.67;47.00;;;;;0.68;81.55;100463.69;4975141;28;45331;-76
2021/12/13 02:02:51;;;;;;;;;55.67;44.00;;;;;0.67;81.70;100475.78;4975510;28;46159;-76
2021/12/13 02:05:24;;;;;;;;;61.50;49.00;;;;;0.65;81.63;100471.44;4979618;28;45530;-76
2021/12/13 02:07:53;;;;;;;;;54.33;44.33;;;;;0.64;81.85;100474.88;4986535;28;45366;-76
2021/12/13 02:10:29;;;;;;;;;50.67;43.33;;;;;0.64;81.86;100483.53;4970768;28;45356;-75
2021/12/13 02:13:05;;;;;;;;;54.33;44.00;;;;;0.65;81.85;100484.41;4976570;28;46970;-76
2021/12/13 02:18:25;;;;;;;;;53.67;43.33;;;;;0.65;81.77;100474.03;4965448;28;45437;-76
2021/12/13 02:21:02;;;;;;;;;57.67;47.33;;;;;0.66;81.83;100478.38;4975182;28;45371;-76
2021/12/13 02:23:29;;;;;;;;;54.67;46.33;;;;;0.66;81.83;100480.97;4983450;28;46585;-76
2021/12/13 02:25:57;;;;;;;;;50.00;41.00;;;;;0.63;81.70;100475.69;4983160;28;45567;-76
2021/12/13 02:28:27;;;;;;;;;62.67;48.00;;;;;0.62;81.81;100482.63;4978332;28;45449;-76
2021/12/13 02:31:01;;;;;;;;;50.33;43.67;;;;;0.58;81.77;100477.31;4974577;28;45513;-76
2021/12/13 02:33:29;;;;;;;;;61.00;44.75;;;;;0.56;81.70;100476.41;4984650;28;45378;-76
2021/12/13 02:36:01;;;;;;;;;48.33;44.00;;;;;0.54;81.86;100478.09;4995818;28;45434;-76
2021/12/13 02:38:27;;;;;;;;;56.67;47.33;;;;;0.52;81.82;100471.97;5018220;28;45303;-75
2021/12/13 02:40:53;;;;;;;;;54.00;48.00;;;;;0.50;81.89;100466.78;5018751;28;45579;-76
2021/12/13 02:43:23;;;;;;;;;54.67;46.00;;;;;0.50;81.94;100468.50;5019189;28;47782;-76
2021/12/13 02:45:53;;;;;;;;;47.67;41.00;;;;;0.47;81.98;100469.31;5016639;28;45394;-76
2021/12/13 02:48:39;;;;;;;;;39.67;36.33;;;;;0.45;81.84;100465.81;5000685;28;45554;-76
2021/12/13 02:51:19;;;;;;;;;63.33;47.33;;;;;0.43;82.26;100470.06;5020293;28;45637;-75
2021/12/13 02:53:49;;;;;;;;;61.33;48.00;;;;;0.42;82.31;100465.72;5015173;28;45446;-76
2021/12/13 02:56:18;;;;;;;;;49.00;43.67;;;;;0.41;81.89;100458.78;5008997;28;45418;-75
2021/12/13 02:58:44;;;;;;;;;57.33;45.00;;;;;0.41;81.98;100458.78;5014258;28;45433;-75
2021/12/13 03:01:22;;;;;;;;;47.67;44.33;;;;;0.41;82.17;100461.38;5008535;28;45174;-75
2021/12/13 03:03:54;;;;;;;;;55.67;45.67;;;;;0.42;82.32;100457.94;5019870;28;45511;-76
2021/12/13 03:06:25;;;;;;;;;60.33;47.00;;;;;0.44;82.04;100455.38;5011202;28;45347;-75
2021/12/13 03:09:06;;;;;;;;;60.00;45.67;;;;;0.44;82.40;100461.44;4998979;28;45466;-75
2021/12/13 03:11:34;;;;;;;;;47.00;40.33;;;;;0.43;81.88;100453.63;5004650;28;45541;-76
2021/12/13 03:14:13;;;;;;;;;55.67;45.67;;;;;0.41;82.18;100461.38;5013237;28;46989;-76
2021/12/13 03:16:48;;;;;;;;;55.33;44.33;;;;;0.41;82.51;100453.59;5021889;28;45413;-76
2021/12/13 03:19:37;;;;;;;;;52.00;43.67;;;;;0.41;82.35;100456.19;4996545;28;45419;-75
2021/12/13 03:22:05;;;;;;;;;66.67;50.67;;;;;0.40;82.17;100451.84;5010564;28;45430;-76
2021/12/13 03:24:33;;;;;;;;;58.67;45.00;;;;;0.40;82.14;100456.16;5014434;28;46287;-76
2021/12/13 03:27:27;;;;;;;;;56.33;45.33;;;;;0.36;82.15;100455.22;4996372;28;45404;-75
2021/12/13 03:30:16;;;;;;;;;58.00;47.67;;;;;0.33;82.23;100452.56;4996264;28;45556;-76
2021/12/13 03:32:58;;;;;;;;;57.33;45.33;;;;;0.33;82.42;100447.38;5007192;28;45460;-75
2021/12/13 03:35:23;;;;;;;;;52.33;42.67;;;;;0.31;82.51;100442.16;5023058;28;46604;-76
2021/12/13 03:38:00;;;;;;;;;55.33;44.33;;;;;0.31;82.57;100443.88;5024478;28;45349;-76
2021/12/13 03:40:28;;;;;;;;;56.33;46.00;;;;;0.30;82.64;100444.72;5023478;28;45472;-75
2021/12/13 03:42:57;;;;;;;;;54.67;42.00;;;;;0.30;82.33;100440.41;5027368;28;45426;-75
2021/12/13 03:45:28;;;;;;;;;49.00;41.33;;;;;0.30;82.65;100444.72;4998871;28;47328;-76
2021/12/13 03:47:56;;;;;;;;;48.67;44.00;;;;;0.30;82.78;100447.31;5019580;28;45429;-75
2021/12/13 03:50:31;;;;;;;;;49.00;41.33;;;;;0.29;82.73;100441.25;5024851;28;45348;-75
2021/12/13 03:53:02;;;;;;;;;48.00;44.67;;;;;0.30;82.65;100444.72;5017821;28;45182;-75
2021/12/13 03:55:30;;;;;;;;;46.33;40.33;;;;;0.30;82.74;100447.31;5017612;28;45453;-76
2021/12/13 03:58:00;;;;;;;;;56.67;43.67;;;;;0.30;82.87;100440.41;5022342;28;45558;-75
2021/12/13 04:00:29;;;;;;;;;55.00;43.33;;;;;0.31;82.71;100449.94;5016532;28;45398;-75
2021/12/13 04:02:58;;;;;;;;;58.67;42.00;;;;;0.34;82.50;100449.09;5017163;28;45546;-75
2021/12/13 04:05:28;;;;;;;;;52.00;45.33;;;;;0.37;82.79;100443.13;5016915;28;46205;-75
2021/12/13 04:07:59;;;;;;;;;55.33;41.33;;;;;0.37;82.80;100446.59;5017542;28;45399;-75
2021/12/13 04:10:28;;;;;;;;;51.33;41.33;;;;;0.40;82.86;100446.66;5023194;28;45583;-75
2021/12/13 04:12:57;;;;;;;;;44.00;38.67;;;;;0.41;82.90;100452.72;5019030;28;45437;-75
2021/12/13 04:15:54;;;;;;;;;42.67;41.33;;;;;0.45;82.67;100449.34;5024431;28;45600;-75
2021/12/13 04:21:59;;;;;;;;;41.33;33.33;;;;;0.53;82.87;100456.44;4988981;28;45470;-75
2021/12/13 04:24:34;;;;;;;;;37.00;37.00;;;;;0.56;82.94;100451.34;5016418;28;45312;-75
2021/12/13 04:27:25;;;;;;;;;42.00;37.33;;;;;0.61;82.93;100457.50;5016369;28;46433;-75
2021/12/13 04:29:55;;;;;;;;;32.67;31.67;;;;;0.64;82.69;100454.97;5005539;28;45574;-75
2021/12/13 04:32:25;;;;;;;;;40.00;31.00;;;;;0.69;82.62;100458.53;5018103;28;45271;-75
2021/12/13 04:34:54;;;;;;;;;41.33;36.67;;;;;0.74;82.56;100457.75;5016477;28;45376;-75
2021/12/13 04:37:23;;;;;;;;;36.67;32.00;;;;;0.78;82.40;100460.44;5016399;28;45302;-76
2021/12/13 04:40:06;;;;;;;;;33.00;31.00;;;;;0.82;82.32;100464.00;5015395;28;45422;-76
2021/12/13 04:42:32;;;;;;;;;43.33;34.67;;;;;0.84;82.04;100459.72;5016497;28;45547;-76
2021/12/13 04:44:57;;;;;;;;;38.33;34.00;;;;;0.85;81.74;100453.66;5015249;28;45450;-76
2021/12/13 04:47:28;;;;;;;;;37.00;32.00;;;;;0.85;82.02;100451.91;5016637;28;45252;-76
2021/12/13 04:50:04;;;;;;;;;45.00;39.00;;;;;0.86;81.97;100456.28;5013481;28;45635;-76
2021/12/13 04:52:33;;;;;;;;;48.00;42.67;;;;;0.87;81.87;100457.16;5025668;28;45485;-76
2021/12/13 04:55:00;;;;;;;;;45.33;36.33;;;;;0.88;81.84;100459.78;5020252;28;45469;-75
2021/12/13 04:57:26;;;;;;;;;45.33;38.67;;;;;0.89;81.73;100465.84;5023012;28;45387;-75
2021/12/13 05:00:04;;;;;;;;;49.33;43.67;;;;;0.86;81.45;100464.06;5019415;28;45493;-75
2021/12/13 05:02:29;;;;;;;;;47.00;41.00;;;;;0.84;81.33;100468.34;5032174;28;45517;-75
2021/12/13 05:04:58;;;;;;;;;46.67;41.67;;;;;0.81;81.46;100473.50;5027984;28;45573;-76
2021/12/13 05:07:26;;;;;;;;;43.00;36.00;;;;;0.78;81.44;100475.16;5005385;28;47244;-75
2021/12/13 05:09:52;;;;;;;;;30.00;30.00;;;;;0.75;81.48;100472.47;5017306;28;45323;-75
2021/12/13 05:12:22;;;;;;;;;43.00;40.67;;;;;0.74;81.50;100473.31;5015913;28;45606;-75
2021/12/13 05:14:54;;;;;;;;;49.67;43.00;;;;;0.70;81.36;100469.78;5015806;28;45395;-75
2021/12/13 05:17:23;;;;;;;;;51.33;40.00;;;;;0.68;81.50;100467.16;5015689;28;47726;-75
2021/12/13 05:20:11;;;;;;;;;48.33;43.67;;;;;0.65;81.41;100463.66;5015846;28;45467;-75
2021/12/13 05:22:48;;;;;;;;;51.00;42.67;;;;;0.61;81.59;100462.69;5005926;28;45398;-76
2021/12/13 05:25:32;;;;;;;;;48.33;41.67;;;;;0.58;81.36;100470.41;5015923;28;45379;-75
2021/12/13 05:28:10;;;;;;;;;57.33;45.33;;;;;0.54;81.52;100467.69;5013943;28;46241;-75
2021/12/13 05:30:43;;;;;;;;;51.33;45.00;;;;;0.49;81.38;100469.34;5012059;28;45437;-75
2021/12/13 05:33:10;;;;;;;;;59.33;44.67;;;;;0.45;81.60;100460.63;5000039;28;45399;-75
2021/12/13 05:35:55;;;;;;;;;49.33;43.33;;;;;0.42;81.94;100464.84;5015150;28;45507;-75
2021/12/13 05:38:42;;;;;;;;;41.33;33.00;;;;;0.40;82.09;100464.81;5015145;28;45493;-75
2021/12/13 05:41:12;;;;;;;;;52.67;46.33;;;;;0.40;82.28;100466.53;5015236;28;45390;-75
2021/12/13 05:43:42;;;;;;;;;53.67;43.67;;;;;0.41;82.15;100471.75;5015886;28;45434;-75
2021/12/13 05:46:13;;;;;;;;;52.33;41.67;;;;;0.39;82.21;100462.19;5021591;28;45552;-75
2021/12/13 05:48:49;;;;;;;;;48.00;42.67;;;;;0.38;82.09;100468.22;5016188;28;45447;-75
2021/12/13 05:51:28;;;;;;;;;50.67;45.00;;;;;0.37;82.27;100464.75;5017433;28;45504;-75
2021/12/13 05:54:17;;;;;;;;;57.33;44.33;;;;;0.37;82.25;100474.25;5015101;28;45388;-75
2021/12/13 05:57:06;;;;;;;;;59.33;47.33;;;;;0.35;82.12;100469.00;5002876;28;45470;-75
2021/12/13 05:59:36;;;;;;;;;57.00;45.00;;;;;0.35;82.07;100466.41;5001994;28;47659;-75
2021/12/13 06:02:15;;;;;;;;;43.00;38.33;;;;;0.30;81.88;100463.75;5016926;28;45423;-75
2021/12/13 06:04:43;;;;;;;;;57.75;47.00;;;;;0.29;82.47;100464.59;5014566;28;45243;-75
2021/12/13 06:07:24;;;;;;;;;55.25;47.00;;;;;0.26;82.00;100469.69;5015399;28;45589;-76
2021/12/13 06:09:53;;;;;;;;;54.75;45.75;;;;;0.21;82.27;100475.59;5017019;28;45390;-75
2021/12/13 06:12:37;;;;;;;;;56.00;42.67;;;;;0.18;82.25;100475.53;5020179;28;45371;-76
2021/12/13 06:15:29;;;;;;;;;51.00;42.67;;;;;0.13;82.64;100467.66;5021410;28;45232;-75
2021/12/13 06:18:18;;;;;;;;;62.67;47.33;;;;;0.12;82.41;100465.03;5009095;28;45485;-75
2021/12/13 06:20:58;;;;;;;;;62.33;49.67;;;;;0.11;82.72;100468.47;5024840;28;47391;-75
2021/12/13 06:23:29;;;;;;;;;41.00;32.33;;;;;0.09;82.81;100473.63;5013288;28;45394;-75
2021/12/13 06:26:06;;;;;;;;;59.67;46.33;;;;;0.07;82.83;100477.88;5015511;28;45324;-75
2021/12/13 06:28:44;;;;;;;;;59.00;47.25;;;;;0.07;82.97;100470.09;5017742;28;45405;-75
2021/12/13 06:31:14;;;;;;;;;49.00;43.67;;;;;0.07;83.08;100470.09;5001904;28;46375;-75
2021/12/13 06:33:54;;;;;;;;;57.33;48.33;;;;;0.09;83.03;100473.63;5021418;28;45378;-75
2021/12/13 06:36:33;;;;;;;;;63.00;46.00;;;;;0.10;82.92;100474.50;5012947;28;45344;-75
2021/12/13 06:39:05;;;;;;;;;55.00;46.00;;;;;0.09;83.06;100473.63;4995620;28;45597;-76
2021/12/13 06:41:39;;;;;;;;;64.33;48.67;;;;;0.09;82.98;100476.22;5010281;28;45580;-75
2021/12/13 06:44:17;;;;;;;;;56.67;44.67;;;;;0.08;82.60;100478.75;5013550;28;45409;-75
2021/12/13 06:46:51;;;;;;;;;61.25;45.00;;;;;0.05;83.13;100476.09;5013582;28;45462;-75
2021/12/13 06:49:16;;;;;;;;;57.00;48.33;;;;;0.02;82.63;100481.19;5014752;28;45459;-75
2021/12/13 06:51:50;;;;;;;;;57.00;45.00;;;;;0.01;83.03;100482.91;5013594;28;45415;-75
2021/12/13 06:54:25;;;;;;;;;33.33;27.67;;;;;0.01;83.12;100475.13;5013874;28;45400;-75
2021/12/13 06:56:57;;;;;;;;;62.33;43.67;;;;;0.00;83.23;100471.66;5014588;28;45451;-75
2021/12/13 06:59:23;;;;;;;;;66.67;50.67;;;;;0.02;83.32;100478.59;5009216;28;45555;-75
2021/12/13 07:02:09;;;;;;;;;59.67;46.33;;;;;0.00;83.07;100482.03;5024773;28;46117;-75
2021/12/13 07:04:51;;;;;;;;;55.67;45.67;;;;;0.03;83.20;100490.72;5013512;28;45563;-75
2021/12/13 07:07:19;;;;;;;;;58.33;49.33;;;;;0.01;82.94;100485.50;4991652;28;45219;-76
2021/12/13 07:09:56;;;;;;;;;58.33;45.67;;;;;0.00;82.93;100487.22;5015699;28;45501;-76
2021/12/13 07:12:22;;;;;;;;;52.00;42.67;;;;;-0.02;83.05;100488.06;5015464;28;46064;-76
2021/12/13 07:14:49;;;;;;;;;59.00;47.00;;;;;-0.02;83.09;100483.75;4999685;28;45429;-76
2021/12/13 07:17:22;;;;;;;;;62.00;49.33;;;;;0.00;83.69;100487.22;5015041;28;45344;-70
2021/12/13 07:19:51;;;;;;;;;56.33;47.33;;;;;0.11;83.34;100484.03;4993778;28;45373;-70
2021/12/13 07:22:29;;;;;;;;;55.67;41.33;;;;;0.20;83.29;100481.63;5016561;28;46017;-70
2021/12/13 07:25:06;;;;;;;;;55.33;45.67;;;;;0.29;82.88;100474.97;5016947;28;45495;-70
2021/12/13 07:27:39;;;;;;;;;37.00;30.33;;;;;0.34;82.59;100488.00;5025308;28;45424;-70
2021/12/13 07:30:18;;;;;;;;;59.67;46.67;;;;;0.40;82.59;100482.97;5017293;28;45442;-70
2021/12/13 07:32:58;;;;;;;;;48.67;45.00;;;;;0.44;82.53;100489.09;4998491;28;45464;-70
2021/12/13 07:35:40;;;;;;;;;33.50;24.25;;;;;0.46;82.30;100483.13;4998106;28;45459;-70
2021/12/13 07:38:11;;;;;;;;;55.75;44.00;;;;;0.51;81.97;100485.78;4998709;28;45396;-70
2021/12/13 07:40:41;;;;;;;;;62.00;51.00;;;;;0.53;81.92;100490.19;5016845;28;45359;-70
2021/12/13 07:43:07;;;;;;;;;56.75;47.50;;;;;0.55;81.72;100492.81;5016286;28;45985;-70
2021/12/13 07:45:46;;;;;;;;;56.75;47.75;;;;;0.57;81.84;100492.00;4998149;28;45491;-70
2021/12/13 07:48:18;;;;;;;;;68.25;51.50;;;;;0.60;81.63;100501.59;5005237;28;45439;-70
2021/12/13 07:50:55;;;;;;;;;67.50;49.50;;;;;0.64;81.39;100490.44;4998513;28;45784;-70
2021/12/13 07:53:21;;;;;;;;;63.25;50.50;;;;;0.64;81.17;100490.44;5016252;28;45707;-70
2021/12/13 07:55:49;;;;;;;;;53.75;44.50;;;;;0.65;81.24;100489.59;4998277;28;45892;-70
2021/12/13 07:58:31;;;;;;;;;44.33;35.33;;;;;0.67;81.17;100493.09;5016770;28;45456;-70
2021/12/13 08:01:11;;;;;;;;;57.25;45.75;;;;;0.67;81.10;100491.34;5015847;28;45610;-70
2021/12/13 08:03:45;;;;;;;;;61.25;51.50;;;;;0.70;81.24;100494.00;4998256;28;47314;-70
2021/12/13 08:06:11;;;;;;;;;66.75;55.25;;;;;0.74;80.97;100501.88;5016970;28;45395;-69
2021/12/13 08:08:46;;;;;;;;;70.75;55.25;;;;;0.76;80.91;100495.00;5016390;28;45455;-70
2021/12/13 08:11:12;;;;;;;;;66.25;52.50;;;;;0.79;81.20;100493.34;4998685;28;45577;-69
2021/12/13 08:13:38;;;;;;;;;61.50;52.00;;;;;0.82;80.82;100501.22;5016297;28;46236;-70
2021/12/13 08:16:08;;;;;;;;;65.75;53.25;;;;;0.85;80.77;100497.78;5015929;28;45373;-69
2021/12/13 08:18:35;;;;;;;;;60.00;49.25;;;;;0.87;81.22;100496.09;4998391;28;45396;-71
2021/12/13 08:21:07;;;;;;;;;55.50;47.75;;;;;0.89;80.28;100499.59;4997265;28;45533;-71
2021/12/13 08:23:47;;;;;;;;;50.33;43.67;;;;;0.92;80.58;100497.06;5015710;28;46533;-71
2021/12/13 08:26:17;;;;;;;;;66.00;48.25;;;;;0.94;80.73;100498.84;4998392;28;45382;-69
2021/12/13 08:28:49;;;;;;;;;44.67;42.00;;;;;0.96;80.10;100502.38;5018899;28;45375;-69
2021/12/13 08:31:34;;;;;;;;;55.75;47.25;;;;;0.98;80.23;100497.22;5015185;28;45457;-69
2021/12/13 08:34:07;;;;;;;;;55.00;45.00;;;;;1.01;80.26;100505.03;5015211;28;45547;-70
2021/12/13 08:36:36;;;;;;;;;56.67;47.33;;;;;1.03;80.50;100501.63;5015774;28;45303;-70
2021/12/13 08:39:16;;;;;;;;;53.67;46.33;;;;;1.07;80.44;100504.28;5015767;28;45491;-71
2021/12/13 08:41:41;;;;;;;;;64.67;53.33;;;;;1.09;80.43;100503.47;5013116;28;45656;-70
2021/12/13 08:44:10;;;;;;;;;59.33;48.67;;;;;1.15;80.25;100500.13;5016477;28;45476;-70
2021/12/13 08:46:44;;;;;;;;;55.00;45.33;;;;;1.22;80.24;100507.19;5015640;28;45424;-70
2021/12/13 08:49:12;;;;;;;;;49.00;42.67;;;;;1.26;80.17;100503.81;5019323;28;45476;-68
2021/12/13 08:51:51;;;;;;;;;61.67;45.33;;;;;1.30;79.83;100511.72;5018593;28;45514;-70
2021/12/13 08:54:17;;;;;;;;;56.67;47.33;;;;;1.35;79.82;100503.97;5015748;28;45470;-71
2021/12/13 08:56:47;;;;;;;;;59.00;48.00;;;;;1.41;79.97;100501.50;5015643;28;45671;-70
2021/12/13 08:59:28;;;;;;;;;53.00;45.67;;;;;1.46;80.00;100496.41;5015078;28;45562;-70
2021/12/13 09:02:06;;;;;;;;;53.33;43.67;;;;;1.52;79.94;100512.97;5015422;28;45511;-68
2021/12/13 09:04:37;;;;;;;;;50.67;42.33;;;;;1.59;79.79;100506.16;5015600;28;45540;-70
2021/12/13 09:07:08;;;;;;;;;51.67;44.33;;;;;1.66;79.54;100518.44;5015647;28;45391;-68
2021/12/13 09:09:34;;;;;;;;;60.67;45.33;;;;;1.70;79.39;100512.44;5015305;28;45398;-69
2021/12/13 09:12:04;;;;;;;;;58.67;47.67;;;;;1.74;79.01;100520.31;5015597;28;45375;-69
2021/12/13 09:14:36;;;;;;;;;59.67;46.33;;;;;1.78;78.96;100523.84;5013526;28;45662;-62
2021/12/13 09:17:31;;;;;;;;;57.33;45.67;;;;;1.81;78.95;100520.44;5017635;28;45385;-72
2021/12/13 09:20:32;;;;;;;;;57.00;44.33;;;;;1.83;78.76;100530.00;4991276;28;45642;-73
2021/12/13 09:23:05;;;;;;;;;63.33;48.67;;;;;1.85;78.80;100525.69;4996437;28;45325;-71
2021/12/13 09:25:40;;;;;;;;;52.00;43.33;;;;;1.86;78.41;100514.44;5022481;28;45592;-72
2021/12/13 09:28:29;;;;;;;;;58.00;46.33;;;;;1.92;78.49;100518.88;5028550;28;46227;-72
2021/12/13 09:31:09;;;;;;;;;69.67;50.00;;;;;1.95;78.55;100512.00;5018781;28;45367;-72
2021/12/13 09:33:36;;;;;;;;;62.67;51.33;;;;;1.99;78.18;100512.94;5020971;28;45376;-72
2021/12/13 09:36:13;;;;;;;;;68.75;53.00;;;;;2.05;78.34;100519.09;5026319;28;46473;-71
2021/12/13 09:38:58;;;;;;;;;67.67;53.00;;;;;2.09;78.11;100517.44;5000929;28;45493;-72
2021/12/13 09:41:42;;;;;;;;;64.00;51.33;;;;;2.14;78.01;100510.59;5022721;28;45393;-72
2021/12/13 09:44:14;;;;;;;;;60.00;48.33;;;;;2.18;77.65;100503.72;5026190;28;45422;-71
2021/12/13 09:46:58;;;;;;;;;65.00;52.00;;;;;2.20;77.55;100500.25;5001097;28;45692;-71
2021/12/13 09:49:48;;;;;;;;;64.33;51.33;;;;;2.22;77.42;100498.56;5014792;28;45483;-72
2021/12/13 09:52:16;;;;;;;;;64.33;49.67;;;;;2.26;77.63;100487.38;5029290;28;45514;-71
2021/12/13 09:54:51;;;;;;;;;67.25;55.25;;;;;2.33;77.61;100490.94;5028190;28;45346;-72
2021/12/13 09:57:25;;;;;;;;;70.33;52.67;;;;;2.38;77.60;100487.53;5002571;28;46357;-71
2021/12/13 09:59:54;;;;;;;;;59.00;47.00;;;;;2.48;77.81;100483.34;5027907;28;45485;-71
2021/12/13 10:02:25;;;;;;;;;63.00;50.00;;;;;2.55;77.40;100482.56;5014781;28;45500;-72
2021/12/13 10:04:52;;;;;;;;;60.00;49.00;;;;;2.62;77.08;100486.16;5022147;28;45426;-72
2021/12/13 10:07:24;;;;;;;;;62.67;52.67;;;;;2.68;77.14;100481.88;5013884;28;46224;-72
2021/12/13 10:10:01;;;;;;;;;63.33;52.33;;;;;2.75;77.00;100475.91;5016874;28;45482;-72
2021/12/13 10:12:41;;;;;;;;;66.75;52.25;;;;;2.80;76.74;100476.84;5022654;28;45371;-72
2021/12/13 10:15:27;;;;;;;;;69.00;52.50;;;;;2.86;76.61;100469.94;5024365;28;45636;-71
2021/12/13 10:17:58;;;;;;;;;61.67;50.33;;;;;2.93;76.67;100469.19;5021798;28;45458;-71
2021/12/13 10:20:35;;;;;;;;;65.33;49.67;;;;;3.00;76.55;100460.59;5022885;28;45398;-71
2021/12/13 10:23:02;;;;;;;;;61.33;51.67;;;;;3.06;76.58;100465.88;5014980;28;45366;-71
2021/12/13 10:25:32;;;;;;;;;54.33;45.00;;;;;3.13;76.19;100459.88;5016655;28;45512;-72
2021/12/13 10:27:59;;;;;;;;;60.00;47.00;;;;;3.19;76.32;100461.66;5016318;28;46461;-71
2021/12/13 10:30:33;;;;;;;;;52.67;45.00;;;;;3.25;75.98;100453.91;5014299;28;45467;-68
2021/12/13 10:33:00;;;;;;;;;57.00;48.00;;;;;3.32;75.94;100450.53;5014425;28;45480;-67
2021/12/13 10:35:30;;;;;;;;;43.67;36.67;;;;;3.37;75.78;100456.66;5014913;28;45454;-67
2021/12/13 10:38:06;;;;;;;;;53.33;41.67;;;;;3.43;75.95;100448.91;5021618;28;46573;-68
2021/12/13 10:40:37;;;;;;;;;61.33;49.33;;;;;3.48;75.57;100448.09;5014637;28;45470;-68
2021/12/13 10:43:22;;;;;;;;;53.33;46.33;;;;;3.53;75.10;100453.34;5026760;28;45468;-65
2021/12/13 10:45:53;;;;;;;;;58.00;49.00;;;;;3.57;75.42;100449.03;5016596;28;45267;-68
2021/12/13 10:48:22;;;;;;;;;58.67;47.67;;;;;3.61;75.30;100443.88;5011486;28;46786;-68
2021/12/13 10:50:54;;;;;;;;;51.00;44.33;;;;;3.67;75.20;100432.63;5014215;28;45359;-68
2021/12/13 10:53:23;;;;;;;;;58.67;49.00;;;;;3.70;74.93;100430.91;5013968;28;45439;-68
2021/12/13 10:55:58;;;;;;;;;65.00;52.33;;;;;3.74;75.36;100426.59;5014119;28;45381;-68
2021/12/13 10:58:27;;;;;;;;;50.33;39.00;;;;;3.78;75.16;100421.41;5013661;28;45395;-68
2021/12/13 11:00:59;;;;;;;;;56.33;46.67;;;;;3.82;74.85;100420.59;5013758;28;45395;-67
2021/12/13 11:03:30;;;;;;;;;56.33;45.67;;;;;3.88;74.99;100416.25;5013566;28;45967;-67
2021/12/13 11:05:56;;;;;;;;;61.33;48.33;;;;;3.93;74.79;100410.22;4996142;28;45396;-67
2021/12/13 11:08:24;;;;;;;;;61.67;48.67;;;;;3.98;74.51;100410.25;5013100;28;46279;-67
2021/12/13 11:10:58;;;;;;;;;61.00;47.67;;;;;4.01;74.66;100405.94;5013887;28;45391;-68
2021/12/13 11:13:26;;;;;;;;;64.00;52.00;;;;;4.06;74.37;100403.34;5017810;28;45505;-68
2021/12/13 11:15:57;;;;;;;;;70.00;55.33;;;;;4.09;74.47;100400.75;5001770;28;45384;-69
2021/12/13 11:18:28;;;;;;;;;67.00;53.67;;;;;4.11;74.24;100399.91;5018315;28;46290;-68
2021/12/13 11:20:57;;;;;;;;;62.00;48.67;;;;;4.15;74.25;100398.19;5012750;28;45621;-69
2021/12/13 11:23:23;;;;;;;;;62.33;51.00;;;;;4.15;74.32;100396.47;5027894;28;45380;-68
2021/12/13 11:25:54;;;;;;;;;38.33;35.33;;;;;4.15;74.02;100396.47;5025432;28;45209;-67
2021/12/13 11:28:21;;;;;;;;;62.67;51.33;;;;;4.17;73.89;100386.91;5016422;28;48255;-69
2021/12/13 11:30:49;;;;;;;;;65.00;50.33;;;;;4.19;73.81;100392.13;5019023;28;45706;-69
2021/12/13 11:33:22;;;;;;;;;63.67;47.33;;;;;4.19;73.94;100392.13;5008648;28;45606;-70
2021/12/13 11:36:40;;;;;;;;;58.67;48.00;;;;;4.22;73.88;100385.19;5013196;28;45418;-69
2021/12/13 11:39:09;;;;;;;;;60.33;48.00;;;;;4.26;73.89;100386.06;5012613;28;46212;-69
2021/12/13 11:41:53;;;;;;;;;56.00;47.33;;;;;4.30;73.76;100379.16;5004110;28;45811;-69
2021/12/13 11:44:39;;;;;;;;;61.00;49.00;;;;;4.34;73.51;100375.69;5009310;28;45580;-69
2021/12/13 11:47:24;;;;;;;;;60.67;47.67;;;;;4.36;73.26;100372.19;4996739;28;45945;-69
2021/12/13 11:50:07;;;;;;;;;63.00;50.33;;;;;4.40;73.40;100367.88;5002081;28;46115;-69
2021/12/13 11:53:09;;;;;;;;;49.00;39.33;;;;;4.44;73.49;100361.81;5016180;28;45568;-69
2021/12/13 11:56:04;;;;;;;;;52.00;40.67;;;;;4.49;73.19;100362.72;5024439;28;45479;-68
2021/12/13 11:58:39;;;;;;;;;54.00;43.67;;;;;4.54;72.63;100356.63;4998492;28;45509;-68